sensor_id;sensor_type;location;lat;lon;timestamp;temperature;humidity
44579;DHT22;37422;51.402;0.016;2023-01-06T00:01:31;11.50;99.90
44579;DHT22;37422;51.402;0.016;2023-01-06T00:03:59;11.40;99.90
44579;DHT22;37422;51.402;0.016;2023-01-06T00:06:28;11.30;99.90
44579;DHT22;37422;51.402;0.016;2023-01-06T00:08:59;11.20;99.90
44579;DHT22;37422;51.402;0.016;2023-01-06T00:11:29;11.20;99.90
44579;DHT22;37422;51.402;0.016;2023-01-06T00:13:57;11.20;99.90
44579;DHT22;37422;51.402;0.016;2023-01-06T00:16:26;11.10;99.90
44579;DHT22;37422;51.402;0.016;2023-01-06T00:18:58;11.10;99.90
44579;DHT22;37422;51.402;0.016;2023-01-06T00:21:26;11.10;99.90
44579;DHT22;37422;51.402;0.016;2023-01-06T00:23:54;11.10;99.90
44579;DHT22;37422;51.402;0.016;2023-01-06T00:26:22;11.20;99.90
44579;DHT22;37422;51.402;0.016;2023-01-06T00:28:54;11.20;99.90
44579;DHT22;37422;51.402;0.016;2023-01-06T00:31:25;11.20;99.90
44579;DHT22;37422;51.402;0.016;2023-01-06T00:33:55;11.20;99.90
44579;DHT22;37422;51.402;0.016;2023-01-06T00:36:24;11.20;99.90
44579;DHT22;37422;51.402;0.016;2023-01-06T00:38:52;11.30;99.90
44579;DHT22;37422;51.402;0.016;2023-01-06T00:41:20;11.20;99.90
44579;DHT22;37422;51.402;0.016;2023-01-06T00:44:07;11.30;99.90
44579;DHT22;37422;51.402;0.016;2023-01-06T00:46:35;11.30;99.90
44579;DHT22;37422;51.402;0.016;2023-01-06T00:49:04;11.30;99.90
44579;DHT22;37422;51.402;0.016;2023-01-06T00:51:35;11.30;99.90
44579;DHT22;37422;51.402;0.016;2023-01-06T00:54:05;11.20;99.90
44579;DHT22;37422;51.402;0.016;2023-01-06T00:56:41;11.20;99.90
44579;DHT22;37422;51.402;0.016;2023-01-06T00:59:12;11.20;99.90
44579;DHT22;37422;51.402;0.016;2023-01-06T01:01:41;11.20;99.90
44579;DHT22;37422;51.402;0.016;2023-01-06T01:04:10;11.10;99.90
44579;DHT22;37422;51.402;0.016;2023-01-06T01:06:39;11.10;99.90
44579;DHT22;37422;51.402;0.016;2023-01-06T01:09:09;11.10;99.90
44579;DHT22;37422;51.402;0.016;2023-01-06T01:11:37;11.20;99.90
44579;DHT22;37422;51.402;0.016;2023-01-06T01:14:23;11.20;99.90
44579;DHT22;37422;51.402;0.016;2023-01-06T01:16:51;11.20;99.90
44579;DHT22;37422;51.402;0.016;2023-01-06T01:19:22;11.30;99.90
44579;DHT22;37422;51.402;0.016;2023-01-06T01:21:50;11.30;99.90
44579;DHT22;37422;51.402;0.016;2023-01-06T01:24:18;11.20;99.90
44579;DHT22;37422;51.402;0.016;2023-01-06T01:26:46;11.20;99.90
44579;DHT22;37422;51.402;0.016;2023-01-06T01:29:16;11.20;99.90
44579;DHT22;37422;51.402;0.016;2023-01-06T01:31:44;11.20;99.90
44579;DHT22;37422;51.402;0.016;2023-01-06T01:34:13;11.20;99.90
44579;DHT22;37422;51.402;0.016;2023-01-06T01:36:43;11.10;99.90
44579;DHT22;37422;51.402;0.016;2023-01-06T01:39:14;11.10;99.90
44579;DHT22;37422;51.402;0.016;2023-01-06T01:41:42;11.10;99.90
44579;DHT22;37422;51.402;0.016;2023-01-06T01:47:19;11.10;99.90
44579;DHT22;37422;51.402;0.016;2023-01-06T01:49:51;11.10;99.90
44579;DHT22;37422;51.402;0.016;2023-01-06T01:52:20;11.00;99.90
44579;DHT22;37422;51.402;0.016;2023-01-06T01:54:50;11.10;99.90
44579;DHT22;37422;51.402;0.016;2023-01-06T01:57:25;11.10;99.90
44579;DHT22;37422;51.402;0.016;2023-01-06T01:59:54;11.10;99.90
44579;DHT22;37422;51.402;0.016;2023-01-06T02:02:23;11.10;99.90
44579;DHT22;37422;51.402;0.016;2023-01-06T02:04:53;11.00;99.90
44579;DHT22;37422;51.402;0.016;2023-01-06T02:07:24;11.10;99.90
44579;DHT22;37422;51.402;0.016;2023-01-06T02:10:08;11.10;99.90
44579;DHT22;37422;51.402;0.016;2023-01-06T02:12:38;11.10;99.90
44579;DHT22;37422;51.402;0.016;2023-01-06T02:15:21;11.10;99.90
44579;DHT22;37422;51.402;0.016;2023-01-06T02:37:14;10.70;99.90
44579;DHT22;37422;51.402;0.016;2023-01-06T02:40:09;10.60;99.90
44579;DHT22;37422;51.402;0.016;2023-01-06T02:42:44;10.50;99.90
44579;DHT22;37422;51.402;0.016;2023-01-06T02:50:57;10.20;99.90
44579;DHT22;37422;51.402;0.016;2023-01-06T02:53:38;10.00;99.90
44579;DHT22;37422;51.402;0.016;2023-01-06T02:56:08;9.90;99.90
44579;DHT22;37422;51.402;0.016;2023-01-06T03:03:53;9.70;99.90
44579;DHT22;37422;51.402;0.016;2023-01-06T03:06:28;9.60;99.90
44579;DHT22;37422;51.402;0.016;2023-01-06T03:08:59;9.50;99.90
44579;DHT22;37422;51.402;0.016;2023-01-06T03:11:32;9.40;99.90
44579;DHT22;37422;51.402;0.016;2023-01-06T03:14:23;9.30;99.90
44579;DHT22;37422;51.402;0.016;2023-01-06T03:16:49;9.20;99.90
44579;DHT22;37422;51.402;0.016;2023-01-06T03:19:17;9.10;99.90
44579;DHT22;37422;51.402;0.016;2023-01-06T03:21:47;9.00;99.90
44579;DHT22;37422;51.402;0.016;2023-01-06T03:24:19;8.90;99.90
44579;DHT22;37422;51.402;0.016;2023-01-06T03:26:48;8.90;99.90
44579;DHT22;37422;51.402;0.016;2023-01-06T03:29:19;8.80;99.90
44579;DHT22;37422;51.402;0.016;2023-01-06T03:31:59;8.70;99.90
44579;DHT22;37422;51.402;0.016;2023-01-06T03:51:37;8.30;99.90
44579;DHT22;37422;51.402;0.016;2023-01-06T03:57:17;8.20;99.90
44579;DHT22;37422;51.402;0.016;2023-01-06T03:59:53;8.10;99.90
44579;DHT22;37422;51.402;0.016;2023-01-06T04:02:23;8.10;99.90
44579;DHT22;37422;51.402;0.016;2023-01-06T04:05:14;8.00;99.90
44579;DHT22;37422;51.402;0.016;2023-01-06T04:07:44;8.00;99.90
44579;DHT22;37422;51.402;0.016;2023-01-06T04:10:15;8.00;99.90
44579;DHT22;37422;51.402;0.016;2023-01-06T04:12:46;7.90;99.90
44579;DHT22;37422;51.402;0.016;2023-01-06T04:15:23;7.90;99.90
44579;DHT22;37422;51.402;0.016;2023-01-06T04:17:54;7.80;99.90
44579;DHT22;37422;51.402;0.016;2023-01-06T04:20:26;7.80;99.90
44579;DHT22;37422;51.402;0.016;2023-01-06T04:23:00;7.80;99.90
44579;DHT22;37422;51.402;0.016;2023-01-06T04:25:33;7.70;99.90
44579;DHT22;37422;51.402;0.016;2023-01-06T04:28:08;7.70;99.90
44579;DHT22;37422;51.402;0.016;2023-01-06T04:30:37;7.70;99.90
44579;DHT22;37422;51.402;0.016;2023-01-06T04:33:04;7.60;99.90
44579;DHT22;37422;51.402;0.016;2023-01-06T04:35:32;7.60;99.90
44579;DHT22;37422;51.402;0.016;2023-01-06T04:38:01;7.60;99.90
44579;DHT22;37422;51.402;0.016;2023-01-06T04:40:29;7.60;99.90
44579;DHT22;37422;51.402;0.016;2023-01-06T04:42:57;7.50;99.90
44579;DHT22;37422;51.402;0.016;2023-01-06T04:45:34;7.50;99.90
44579;DHT22;37422;51.402;0.016;2023-01-06T04:48:02;7.50;99.90
44579;DHT22;37422;51.402;0.016;2023-01-06T04:50:30;7.40;99.90
44579;DHT22;37422;51.402;0.016;2023-01-06T04:52:57;7.40;99.90
44579;DHT22;37422;51.402;0.016;2023-01-06T04:55:25;7.40;99.90
44579;DHT22;37422;51.402;0.016;2023-01-06T04:57:53;7.40;99.90
44579;DHT22;37422;51.402;0.016;2023-01-06T05:00:21;7.40;99.90
44579;DHT22;37422;51.402;0.016;2023-01-06T05:02:49;7.30;99.90
44579;DHT22;37422;51.402;0.016;2023-01-06T05:05:17;7.30;99.90
44579;DHT22;37422;51.402;0.016;2023-01-06T05:07:44;7.30;99.90
44579;DHT22;37422;51.402;0.016;2023-01-06T05:10:12;7.30;99.90
44579;DHT22;37422;51.402;0.016;2023-01-06T05:12:40;7.30;99.90
44579;DHT22;37422;51.402;0.016;2023-01-06T05:15:08;7.30;99.90
44579;DHT22;37422;51.402;0.016;2023-01-06T05:17:36;7.30;99.90
44579;DHT22;37422;51.402;0.016;2023-01-06T05:20:04;7.20;99.90
44579;DHT22;37422;51.402;0.016;2023-01-06T05:22:32;7.20;99.90
44579;DHT22;37422;51.402;0.016;2023-01-06T05:24:59;7.20;99.90
44579;DHT22;37422;51.402;0.016;2023-01-06T05:27:27;7.20;99.90
44579;DHT22;37422;51.402;0.016;2023-01-06T05:29:55;7.10;99.90
44579;DHT22;37422;51.402;0.016;2023-01-06T05:32:22;7.10;99.90
44579;DHT22;37422;51.402;0.016;2023-01-06T05:34:50;7.10;99.90
44579;DHT22;37422;51.402;0.016;2023-01-06T05:37:18;7.10;99.90
44579;DHT22;37422;51.402;0.016;2023-01-06T05:39:45;7.10;99.90
44579;DHT22;37422;51.402;0.016;2023-01-06T05:42:15;7.10;99.90
44579;DHT22;37422;51.402;0.016;2023-01-06T05:44:43;7.10;99.90
44579;DHT22;37422;51.402;0.016;2023-01-06T05:47:11;7.00;99.90
44579;DHT22;37422;51.402;0.016;2023-01-06T05:49:39;7.00;99.90
44579;DHT22;37422;51.402;0.016;2023-01-06T05:52:07;7.00;99.90
44579;DHT22;37422;51.402;0.016;2023-01-06T05:54:34;7.00;99.90
44579;DHT22;37422;51.402;0.016;2023-01-06T05:57:02;7.00;99.90
44579;DHT22;37422;51.402;0.016;2023-01-06T05:59:29;7.00;99.90
44579;DHT22;37422;51.402;0.016;2023-01-06T06:01:57;7.00;99.90
44579;DHT22;37422;51.402;0.016;2023-01-06T06:04:25;7.00;99.90
44579;DHT22;37422;51.402;0.016;2023-01-06T06:06:52;7.00;99.90
44579;DHT22;37422;51.402;0.016;2023-01-06T06:09:20;7.00;99.90
44579;DHT22;37422;51.402;0.016;2023-01-06T06:11:48;7.00;99.90
44579;DHT22;37422;51.402;0.016;2023-01-06T06:14:18;7.00;99.90
44579;DHT22;37422;51.402;0.016;2023-01-06T06:16:45;6.90;99.90
44579;DHT22;37422;51.402;0.016;2023-01-06T06:19:16;6.90;99.90
44579;DHT22;37422;51.402;0.016;2023-01-06T06:21:44;6.90;99.90
44579;DHT22;37422;51.402;0.016;2023-01-06T06:24:11;6.90;99.90
44579;DHT22;37422;51.402;0.016;2023-01-06T06:26:39;6.90;99.90
44579;DHT22;37422;51.402;0.016;2023-01-06T06:29:07;6.80;99.90
44579;DHT22;37422;51.402;0.016;2023-01-06T06:31:34;6.80;99.90
44579;DHT22;37422;51.402;0.016;2023-01-06T06:34:03;6.80;99.90
44579;DHT22;37422;51.402;0.016;2023-01-06T06:36:31;6.80;99.90
44579;DHT22;37422;51.402;0.016;2023-01-06T06:38:59;6.80;99.90
44579;DHT22;37422;51.402;0.016;2023-01-06T06:41:27;6.80;99.90
44579;DHT22;37422;51.402;0.016;2023-01-06T06:43:55;6.80;99.90
44579;DHT22;37422;51.402;0.016;2023-01-06T06:46:22;6.80;99.90
44579;DHT22;37422;51.402;0.016;2023-01-06T06:48:50;6.80;99.90
44579;DHT22;37422;51.402;0.016;2023-01-06T06:51:20;6.80;99.90
44579;DHT22;37422;51.402;0.016;2023-01-06T06:53:49;6.80;99.90
44579;DHT22;37422;51.402;0.016;2023-01-06T06:56:18;6.90;99.90
44579;DHT22;37422;51.402;0.016;2023-01-06T06:58:46;6.80;99.90
44579;DHT22;37422;51.402;0.016;2023-01-06T07:01:16;6.80;99.90
44579;DHT22;37422;51.402;0.016;2023-01-06T07:03:45;6.80;99.90
44579;DHT22;37422;51.402;0.016;2023-01-06T07:06:16;6.80;99.90
44579;DHT22;37422;51.402;0.016;2023-01-06T07:08:46;6.70;99.90
44579;DHT22;37422;51.402;0.016;2023-01-06T07:11:14;6.70;99.90
44579;DHT22;37422;51.402;0.016;2023-01-06T07:13:42;6.70;99.90
44579;DHT22;37422;51.402;0.016;2023-01-06T07:16:10;6.60;99.90
44579;DHT22;37422;51.402;0.016;2023-01-06T07:18:38;6.60;99.90
44579;DHT22;37422;51.402;0.016;2023-01-06T07:21:06;6.60;99.90
44579;DHT22;37422;51.402;0.016;2023-01-06T07:23:34;6.50;99.90
44579;DHT22;37422;51.402;0.016;2023-01-06T07:26:02;6.50;99.90
44579;DHT22;37422;51.402;0.016;2023-01-06T07:28:30;6.50;99.90
44579;DHT22;37422;51.402;0.016;2023-01-06T07:30:59;6.40;99.90
44579;DHT22;37422;51.402;0.016;2023-01-06T07:33:27;6.40;99.90
44579;DHT22;37422;51.402;0.016;2023-01-06T07:35:56;6.40;99.90
44579;DHT22;37422;51.402;0.016;2023-01-06T07:38:24;6.40;99.90
44579;DHT22;37422;51.402;0.016;2023-01-06T07:40:59;6.40;99.90
44579;DHT22;37422;51.402;0.016;2023-01-06T07:43:28;6.30;99.90
44579;DHT22;37422;51.402;0.016;2023-01-06T07:45:55;6.30;99.90
44579;DHT22;37422;51.402;0.016;2023-01-06T07:48:23;6.30;99.90
44579;DHT22;37422;51.402;0.016;2023-01-06T07:50:51;6.30;99.90
44579;DHT22;37422;51.402;0.016;2023-01-06T07:53:19;6.20;99.90
44579;DHT22;37422;51.402;0.016;2023-01-06T07:55:53;6.20;99.90
44579;DHT22;37422;51.402;0.016;2023-01-06T07:58:21;6.20;99.90
44579;DHT22;37422;51.402;0.016;2023-01-06T08:00:50;6.20;99.90
44579;DHT22;37422;51.402;0.016;2023-01-06T08:03:18;6.20;99.90
44579;DHT22;37422;51.402;0.016;2023-01-06T08:05:46;6.20;99.90
44579;DHT22;37422;51.402;0.016;2023-01-06T08:08:14;6.20;99.90
44579;DHT22;37422;51.402;0.016;2023-01-06T08:10:42;6.20;99.90
44579;DHT22;37422;51.402;0.016;2023-01-06T08:13:09;6.20;99.90
44579;DHT22;37422;51.402;0.016;2023-01-06T08:15:37;6.30;99.90
44579;DHT22;37422;51.402;0.016;2023-01-06T08:18:06;6.30;99.90
44579;DHT22;37422;51.402;0.016;2023-01-06T08:20:33;6.30;99.90
44579;DHT22;37422;51.402;0.016;2023-01-06T08:23:01;6.30;99.90
44579;DHT22;37422;51.402;0.016;2023-01-06T08:25:29;6.50;99.90
44579;DHT22;37422;51.402;0.016;2023-01-06T08:27:57;6.70;99.90
44579;DHT22;37422;51.402;0.016;2023-01-06T08:30:26;6.80;99.90
44579;DHT22;37422;51.402;0.016;2023-01-06T08:32:58;6.90;99.90
44579;DHT22;37422;51.402;0.016;2023-01-06T08:35:26;6.90;99.90
44579;DHT22;37422;51.402;0.016;2023-01-06T08:37:54;7.00;99.90
44579;DHT22;37422;51.402;0.016;2023-01-06T08:40:22;7.00;99.90
44579;DHT22;37422;51.402;0.016;2023-01-06T08:42:50;7.00;99.90
44579;DHT22;37422;51.402;0.016;2023-01-06T08:45:18;7.00;99.90
44579;DHT22;37422;51.402;0.016;2023-01-06T08:47:46;7.10;99.90
44579;DHT22;37422;51.402;0.016;2023-01-06T08:50:14;7.10;99.90
44579;DHT22;37422;51.402;0.016;2023-01-06T08:52:41;7.10;99.90
44579;DHT22;37422;51.402;0.016;2023-01-06T08:55:09;7.00;99.90
44579;DHT22;37422;51.402;0.016;2023-01-06T08:57:37;7.00;99.90
44579;DHT22;37422;51.402;0.016;2023-01-06T09:00:05;7.10;99.90
44579;DHT22;37422;51.402;0.016;2023-01-06T09:02:33;7.00;99.90
44579;DHT22;37422;51.402;0.016;2023-01-06T09:05:03;7.00;99.90
44579;DHT22;37422;51.402;0.016;2023-01-06T09:07:31;7.10;99.90
44579;DHT22;37422;51.402;0.016;2023-01-06T09:09:59;7.10;99.90
44579;DHT22;37422;51.402;0.016;2023-01-06T09:12:26;7.10;99.90
44579;DHT22;37422;51.402;0.016;2023-01-06T09:14:54;7.10;99.90
44579;DHT22;37422;51.402;0.016;2023-01-06T09:17:22;7.20;99.90
44579;DHT22;37422;51.402;0.016;2023-01-06T09:19:49;7.30;99.90
44579;DHT22;37422;51.402;0.016;2023-01-06T09:22:17;7.40;99.90
44579;DHT22;37422;51.402;0.016;2023-01-06T09:24:44;7.50;99.90
44579;DHT22;37422;51.402;0.016;2023-01-06T09:27:12;7.70;99.90
44579;DHT22;37422;51.402;0.016;2023-01-06T09:29:40;7.80;99.90
44579;DHT22;37422;51.402;0.016;2023-01-06T09:32:08;7.90;99.90
44579;DHT22;37422;51.402;0.016;2023-01-06T09:34:36;8.10;99.90
44579;DHT22;37422;51.402;0.016;2023-01-06T09:37:03;8.20;99.90
44579;DHT22;37422;51.402;0.016;2023-01-06T09:39:31;8.30;99.90
44579;DHT22;37422;51.402;0.016;2023-01-06T09:45:17;8.30;99.90
44579;DHT22;37422;51.402;0.016;2023-01-06T09:47:50;8.30;99.90
44579;DHT22;37422;51.402;0.016;2023-01-06T09:50:39;8.30;99.90
44579;DHT22;37422;51.402;0.016;2023-01-06T09:55:42;8.30;99.90
44579;DHT22;37422;51.402;0.016;2023-01-06T09:58:14;8.50;99.90
44579;DHT22;37422;51.402;0.016;2023-01-06T10:00:53;8.90;99.90
44579;DHT22;37422;51.402;0.016;2023-01-06T10:03:24;9.30;99.90
44579;DHT22;37422;51.402;0.016;2023-01-06T10:11:31;10.10;99.90
44579;DHT22;37422;51.402;0.016;2023-01-06T10:14:14;10.10;99.90
44579;DHT22;37422;51.402;0.016;2023-01-06T10:27:40;9.70;99.90
44579;DHT22;37422;51.402;0.016;2023-01-06T10:33:00;9.80;99.90
44579;DHT22;37422;51.402;0.016;2023-01-06T10:35:29;9.90;99.90
44579;DHT22;37422;51.402;0.016;2023-01-06T10:38:01;10.20;99.90
44579;DHT22;37422;51.402;0.016;2023-01-06T10:40:30;10.50;99.90
44579;DHT22;37422;51.402;0.016;2023-01-06T10:43:03;11.00;99.90
44579;DHT22;37422;51.402;0.016;2023-01-06T10:45:41;11.30;99.90
44579;DHT22;37422;51.402;0.016;2023-01-06T10:48:13;11.60;99.90
44579;DHT22;37422;51.402;0.016;2023-01-06T10:50:42;11.90;99.90
44579;DHT22;37422;51.402;0.016;2023-01-06T10:53:13;12.00;99.90
44579;DHT22;37422;51.402;0.016;2023-01-06T10:55:57;12.10;99.90
44579;DHT22;37422;51.402;0.016;2023-01-06T10:58:34;12.20;99.90
44579;DHT22;37422;51.402;0.016;2023-01-06T11:01:09;12.20;99.90
44579;DHT22;37422;51.402;0.016;2023-01-06T11:03:38;12.40;99.90
44579;DHT22;37422;51.402;0.016;2023-01-06T11:06:24;12.70;99.90
44579;DHT22;37422;51.402;0.016;2023-01-06T11:08:52;13.10;99.90
44579;DHT22;37422;51.402;0.016;2023-01-06T11:11:20;13.50;99.90
44579;DHT22;37422;51.402;0.016;2023-01-06T11:14:00;13.80;99.90
44579;DHT22;37422;51.402;0.016;2023-01-06T11:16:34;14.20;99.90
44579;DHT22;37422;51.402;0.016;2023-01-06T11:19:05;14.90;99.90
44579;DHT22;37422;51.402;0.016;2023-01-06T11:21:44;15.40;99.90
44579;DHT22;37422;51.402;0.016;2023-01-06T11:24:20;16.10;99.90
44579;DHT22;37422;51.402;0.016;2023-01-06T11:27:00;16.50;99.90
44579;DHT22;37422;51.402;0.016;2023-01-06T11:29:31;16.70;99.90
44579;DHT22;37422;51.402;0.016;2023-01-06T11:32:14;16.80;99.90
44579;DHT22;37422;51.402;0.016;2023-01-06T11:34:59;16.90;99.90
44579;DHT22;37422;51.402;0.016;2023-01-06T11:37:40;17.10;99.90
44579;DHT22;37422;51.402;0.016;2023-01-06T11:40:28;17.20;99.90
44579;DHT22;37422;51.402;0.016;2023-01-06T11:43:01;17.30;99.90
44579;DHT22;37422;51.402;0.016;2023-01-06T11:45:37;17.00;99.90
44579;DHT22;37422;51.402;0.016;2023-01-06T11:48:15;17.00;99.90
44579;DHT22;37422;51.402;0.016;2023-01-06T11:51:04;16.80;99.90
44579;DHT22;37422;51.402;0.016;2023-01-06T11:53:33;16.20;99.90
44579;DHT22;37422;51.402;0.016;2023-01-06T11:58:55;15.10;99.90
44579;DHT22;37422;51.402;0.016;2023-01-06T12:04:57;14.50;99.90
44579;DHT22;37422;51.402;0.016;2023-01-06T12:06:58;14.40;99.90
44579;DHT22;37422;51.402;0.016;2023-01-06T12:09:37;14.50;99.90
44579;DHT22;37422;51.402;0.016;2023-01-06T12:12:08;14.60;99.90
44579;DHT22;37422;51.402;0.016;2023-01-06T12:14:38;14.60;99.90
44579;DHT22;37422;51.402;0.016;2023-01-06T12:24:25;14.80;99.90
44579;DHT22;37422;51.402;0.016;2023-01-06T12:26:56;14.70;99.90
44579;DHT22;37422;51.402;0.016;2023-01-06T12:29:31;14.50;99.90
44579;DHT22;37422;51.402;0.016;2023-01-06T12:32:17;14.20;99.90
44579;DHT22;37422;51.402;0.016;2023-01-06T12:34:48;13.90;99.90
44579;DHT22;37422;51.402;0.016;2023-01-06T12:42:59;13.40;99.90
44579;DHT22;37422;51.402;0.016;2023-01-06T12:47:57;13.30;99.90
44579;DHT22;37422;51.402;0.016;2023-01-06T12:50:32;13.10;99.90
44579;DHT22;37422;51.402;0.016;2023-01-06T13:11:33;12.70;99.90
44579;DHT22;37422;51.402;0.016;2023-01-06T13:19:48;12.40;99.90
44579;DHT22;37422;51.402;0.016;2023-01-06T13:22:34;12.30;99.90
44579;DHT22;37422;51.402;0.016;2023-01-06T13:28:14;12.10;99.90
44579;DHT22;37422;51.402;0.016;2023-01-06T13:39:43;12.00;99.90
44579;DHT22;37422;51.402;0.016;2023-01-06T13:42:21;12.00;99.90
44579;DHT22;37422;51.402;0.016;2023-01-06T13:44:51;11.90;99.90
44579;DHT22;37422;51.402;0.016;2023-01-06T13:47:21;11.80;99.90
44579;DHT22;37422;51.402;0.016;2023-01-06T13:49:49;11.80;99.90
44579;DHT22;37422;51.402;0.016;2023-01-06T13:52:26;11.80;99.90
44579;DHT22;37422;51.402;0.016;2023-01-06T13:55:14;11.70;99.90
44579;DHT22;37422;51.402;0.016;2023-01-06T13:57:47;11.70;99.90
44579;DHT22;37422;51.402;0.016;2023-01-06T14:00:21;11.60;99.90
44579;DHT22;37422;51.402;0.016;2023-01-06T14:07:55;11.50;99.90
44579;DHT22;37422;51.402;0.016;2023-01-06T14:12:59;11.40;99.90
44579;DHT22;37422;51.402;0.016;2023-01-06T14:15:33;11.40;99.90
44579;DHT22;37422;51.402;0.016;2023-01-06T14:18:02;11.40;99.90
44579;DHT22;37422;51.402;0.016;2023-01-06T14:20:34;11.40;99.90
44579;DHT22;37422;51.402;0.016;2023-01-06T14:23:25;11.40;99.90
44579;DHT22;37422;51.402;0.016;2023-01-06T14:25:55;11.50;99.90
44579;DHT22;37422;51.402;0.016;2023-01-06T14:28:27;11.50;99.90
44579;DHT22;37422;51.402;0.016;2023-01-06T14:31:47;11.50;99.90
44579;DHT22;37422;51.402;0.016;2023-01-06T14:34:10;11.50;99.90
44579;DHT22;37422;51.402;0.016;2023-01-06T14:36:40;11.50;99.90
44579;DHT22;37422;51.402;0.016;2023-01-06T14:39:16;11.50;99.90
44579;DHT22;37422;51.402;0.016;2023-01-06T14:41:54;11.50;99.90
44579;DHT22;37422;51.402;0.016;2023-01-06T14:44:38;11.60;99.90
44579;DHT22;37422;51.402;0.016;2023-01-06T14:47:15;11.60;99.90
44579;DHT22;37422;51.402;0.016;2023-01-06T14:50:06;11.60;99.90
44579;DHT22;37422;51.402;0.016;2023-01-06T14:52:40;11.60;99.90
44579;DHT22;37422;51.402;0.016;2023-01-06T14:55:12;11.50;99.90
44579;DHT22;37422;51.402;0.016;2023-01-06T14:57:41;11.50;99.90
44579;DHT22;37422;51.402;0.016;2023-01-06T15:00:24;11.50;99.90
44579;DHT22;37422;51.402;0.016;2023-01-06T15:03:01;11.50;99.90
44579;DHT22;37422;51.402;0.016;2023-01-06T15:08:15;11.40;99.90
44579;DHT22;37422;51.402;0.016;2023-01-06T15:10:48;11.40;99.90
44579;DHT22;37422;51.402;0.016;2023-01-06T15:16:02;11.30;99.90
44579;DHT22;37422;51.402;0.016;2023-01-06T15:18:33;11.30;99.90
44579;DHT22;37422;51.402;0.016;2023-01-06T15:21:02;11.30;99.90
44579;DHT22;37422;51.402;0.016;2023-01-06T15:23:30;11.30;99.90
44579;DHT22;37422;51.402;0.016;2023-01-06T15:25:57;11.30;99.90
44579;DHT22;37422;51.402;0.016;2023-01-06T15:28:33;11.30;99.90
44579;DHT22;37422;51.402;0.016;2023-01-06T15:31:01;11.30;99.90
44579;DHT22;37422;51.402;0.016;2023-01-06T15:33:36;11.30;99.90
44579;DHT22;37422;51.402;0.016;2023-01-06T15:36:07;11.20;99.90
44579;DHT22;37422;51.402;0.016;2023-01-06T15:38:37;11.20;99.90
44579;DHT22;37422;51.402;0.016;2023-01-06T15:41:07;11.20;99.90
44579;DHT22;37422;51.402;0.016;2023-01-06T15:43:55;11.10;99.90
44579;DHT22;37422;51.402;0.016;2023-01-06T15:46:24;11.10;99.90
44579;DHT22;37422;51.402;0.016;2023-01-06T15:48:53;11.10;99.90
44579;DHT22;37422;51.402;0.016;2023-01-06T15:51:21;11.10;99.90
44579;DHT22;37422;51.402;0.016;2023-01-06T15:53:54;11.00;99.90
44579;DHT22;37422;51.402;0.016;2023-01-06T15:56:25;11.00;99.90
44579;DHT22;37422;51.402;0.016;2023-01-06T15:58:55;11.00;99.90
44579;DHT22;37422;51.402;0.016;2023-01-06T16:01:24;11.00;99.90
44579;DHT22;37422;51.402;0.016;2023-01-06T16:03:54;11.00;99.90
44579;DHT22;37422;51.402;0.016;2023-01-06T16:06:43;11.00;99.90
44579;DHT22;37422;51.402;0.016;2023-01-06T16:14:39;11.00;99.90
44579;DHT22;37422;51.402;0.016;2023-01-06T16:19:52;11.00;99.90
44579;DHT22;37422;51.402;0.016;2023-01-06T16:22:36;11.00;99.90
44579;DHT22;37422;51.402;0.016;2023-01-06T16:27:52;10.90;99.90
44579;DHT22;37422;51.402;0.016;2023-01-06T16:32:53;10.80;99.90
44579;DHT22;37422;51.402;0.016;2023-01-06T16:35:24;10.80;99.90
44579;DHT22;37422;51.402;0.016;2023-01-06T16:37:52;10.80;99.90
44579;DHT22;37422;51.402;0.016;2023-01-06T16:40:23;10.80;99.90
44579;DHT22;37422;51.402;0.016;2023-01-06T16:42:56;10.80;99.90
44579;DHT22;37422;51.402;0.016;2023-01-06T16:45:44;10.80;99.90
44579;DHT22;37422;51.402;0.016;2023-01-06T16:48:18;10.80;99.90
44579;DHT22;37422;51.402;0.016;2023-01-06T16:50:46;10.80;99.90
44579;DHT22;37422;51.402;0.016;2023-01-06T16:53:21;10.80;99.90
44579;DHT22;37422;51.402;0.016;2023-01-06T16:55:55;10.80;99.90
44579;DHT22;37422;51.402;0.016;2023-01-06T17:00:54;10.80;99.90
44579;DHT22;37422;51.402;0.016;2023-01-06T17:03:28;10.80;99.90
44579;DHT22;37422;51.402;0.016;2023-01-06T17:05:57;10.90;99.90
44579;DHT22;37422;51.402;0.016;2023-01-06T17:08:31;10.90;99.90
44579;DHT22;37422;51.402;0.016;2023-01-06T17:11:17;11.00;99.90
44579;DHT22;37422;51.402;0.016;2023-01-06T17:13:58;11.00;99.90
44579;DHT22;37422;51.402;0.016;2023-01-06T17:16:30;11.10;99.90
44579;DHT22;37422;51.402;0.016;2023-01-06T17:21:42;11.20;99.90
44579;DHT22;37422;51.402;0.016;2023-01-06T17:24:22;11.20;99.90
44579;DHT22;37422;51.402;0.016;2023-01-06T17:29:41;11.40;99.90
44579;DHT22;37422;51.402;0.016;2023-01-06T17:34:56;11.40;99.90
44579;DHT22;37422;51.402;0.016;2023-01-06T17:37:26;11.50;99.90
44579;DHT22;37422;51.402;0.016;2023-01-06T17:39:57;11.50;99.90
44579;DHT22;37422;51.402;0.016;2023-01-06T17:42:29;11.50;99.90
44579;DHT22;37422;51.402;0.016;2023-01-06T17:44:59;11.50;99.90
44579;DHT22;37422;51.402;0.016;2023-01-06T17:47:29;11.50;99.90
44579;DHT22;37422;51.402;0.016;2023-01-06T17:50:22;11.50;99.90
44579;DHT22;37422;51.402;0.016;2023-01-06T17:53:15;11.60;99.90
44579;DHT22;37422;51.402;0.016;2023-01-06T17:56:09;11.60;99.90
44579;DHT22;37422;51.402;0.016;2023-01-06T17:58:39;11.60;99.90
44579;DHT22;37422;51.402;0.016;2023-01-06T18:01:13;11.60;99.90
44579;DHT22;37422;51.402;0.016;2023-01-06T18:03:43;11.60;99.90
44579;DHT22;37422;51.402;0.016;2023-01-06T18:06:28;11.70;99.90
44579;DHT22;37422;51.402;0.016;2023-01-06T18:09:16;11.70;99.90
44579;DHT22;37422;51.402;0.016;2023-01-06T18:11:59;11.70;99.90
44579;DHT22;37422;51.402;0.016;2023-01-06T18:14:36;11.70;99.90
44579;DHT22;37422;51.402;0.016;2023-01-06T18:17:21;11.70;99.90
44579;DHT22;37422;51.402;0.016;2023-01-06T18:19:50;11.70;99.90
44579;DHT22;37422;51.402;0.016;2023-01-06T18:22:22;11.70;99.90
44579;DHT22;37422;51.402;0.016;2023-01-06T18:24:53;11.70;99.90
44579;DHT22;37422;51.402;0.016;2023-01-06T18:27:26;11.70;99.90
44579;DHT22;37422;51.402;0.016;2023-01-06T18:30:05;11.80;99.90
44579;DHT22;37422;51.402;0.016;2023-01-06T18:32:40;11.80;99.90
44579;DHT22;37422;51.402;0.016;2023-01-06T18:35:18;11.80;99.90
44579;DHT22;37422;51.402;0.016;2023-01-06T18:37:48;11.80;99.90
44579;DHT22;37422;51.402;0.016;2023-01-06T18:40:19;11.90;99.90
44579;DHT22;37422;51.402;0.016;2023-01-06T18:42:55;11.90;99.90
44579;DHT22;37422;51.402;0.016;2023-01-06T18:45:31;11.90;99.90
44579;DHT22;37422;51.402;0.016;2023-01-06T18:48:41;11.90;99.90
44579;DHT22;37422;51.402;0.016;2023-01-06T18:51:21;11.90;99.90
44579;DHT22;37422;51.402;0.016;2023-01-06T18:53:50;11.90;99.90
44579;DHT22;37422;51.402;0.016;2023-01-06T18:56:22;11.90;99.90
44579;DHT22;37422;51.402;0.016;2023-01-06T18:58:52;11.90;99.90
44579;DHT22;37422;51.402;0.016;2023-01-06T19:04:18;11.90;99.90